Terminal Aerodrome Forecast
Issued by NWS Brownsville, TX

Home | Current Version | Previous Version | Text Only | Print | Product List | Glossary On
Versions: 1 2 3 4 5 6 7 8 9 10 11 12 13 14 15 16 17 18 19 20 21
297
FTUS44 KBRO 302337
TAFHRL
TAF
KHRL 302337Z 0100/0124 08012KT P6SM SKC
     FM010300 11005KT P6SM SKC
     FM011700 13011G17KT P6SM SKC=

USA.gov is the U.S. government's official web portal to all federal, state and local government web resources and services.